Time;durP1;ratioP1;P1;durP2;ratioP2;P2;SDS_P1;SDS_P2;PMS_P1;PMS_P2;Temp;Humidity;BMP_temperature;BMP_pressure;BME280_temperature;BME280_humidity;BME280_pressure;Samples;Min_cycle;Max_cycle;Signal;HPM_P1;HPM_P2
2021/08/28 00:01:53;;;;;;;3.15;2.25;;;;;;;16.73;88.44;99922.34;2897750;82;20999;-71
2021/08/28 00:05:55;;;;;;;3.83;2.42;;;;;;;16.68;88.75;99924.20;2898018;81;21016;-71
2021/08/28 00:09:57;;;;;;;3.87;3.45;;;;;;;16.68;88.71;99926.89;2897223;81;21050;-71
2021/08/28 00:13:59;;;;;;;3.50;3.10;;;;;;;16.70;88.64;99926.73;2897683;82;21026;-71
2021/08/28 00:18:01;;;;;;;2.15;1.90;;;;;;;16.71;88.62;99924.37;2879150;81;21015;-70
2021/08/28 00:22:03;;;;;;;3.72;2.72;;;;;;;16.75;88.36;99930.24;2848388;83;21003;-71
2021/08/28 00:26:05;;;;;;;2.67;2.45;;;;;;;16.77;87.98;99935.75;2893705;82;20998;-71
2021/08/28 00:30:09;;;;;;;4.42;2.83;;;;;;;16.77;87.82;99936.27;2897912;82;21015;-70
2021/08/28 00:34:11;;;;;;;4.15;2.50;;;;;;;16.78;88.18;99937.94;2897635;82;21022;-71
2021/08/28 00:38:13;;;;;;;5.10;2.92;;;;;;;16.77;87.55;99932.24;2897890;81;21035;-70
2021/08/28 00:42:15;;;;;;;5.50;2.20;;;;;;;16.65;87.36;99940.67;2898001;82;20983;-71
2021/08/28 00:46:17;;;;;;;4.80;2.67;;;;;;;16.53;87.44;99936.71;2897967;82;21038;-70
2021/08/28 00:50:18;;;;;;;2.80;2.50;;;;;;;16.45;88.30;99941.59;2898357;80;20975;-71
2021/08/28 00:54:20;;;;;;;2.67;2.47;;;;;;;16.45;88.41;99936.72;2898400;81;20988;-70
2021/08/28 00:58:22;;;;;;;3.95;2.85;;;;;;;16.41;88.52;99939.75;2898644;80;21031;-71
2021/08/28 01:02:28;;;;;;;2.05;1.95;;;;;;;16.39;88.62;99936.41;2898041;81;21007;-71
2021/08/28 01:06:48;;;;;;;3.47;2.62;;;;;;;16.40;89.21;99943.45;2897445;82;21058;-71
2021/08/28 01:11:06;;;;;;;2.77;2.47;;;;;;;16.37;89.01;99933.06;2897915;81;21074;-71
2021/08/28 01:15:12;;;;;;;2.30;2.08;;;;;;;16.40;89.83;99940.77;2897768;81;21018;-71
2021/08/28 01:19:25;;;;;;;2.62;2.12;;;;;;;16.44;89.67;99943.10;2897847;81;21023;-71
2021/08/28 01:23:31;;;;;;;4.08;3.67;;;;;;;16.41;89.50;99945.64;2889607;82;21023;-70
2021/08/28 01:27:56;;;;;;;;;;;;;;;16.37;90.09;99949.17;2900089;81;21034;-71
2021/08/28 01:32:00;;;;;;;3.15;2.62;;;;;;;16.39;90.25;99952.52;2897867;81;20144;-71
2021/08/28 01:36:03;;;;;;;3.12;2.27;;;;;;;16.40;90.06;99943.45;2897819;81;20999;-71
2021/08/28 01:40:08;;;;;;;4.05;3.35;;;;;;;16.39;90.36;99940.44;2897094;81;21019;-71
2021/08/28 01:44:13;;;;;;;5.60;3.17;;;;;;;16.35;90.01;99943.14;2897962;81;21082;-72
2021/08/28 01:48:15;;;;;;;4.25;2.50;;;;;;;16.40;90.93;99936.73;2897640;82;20995;-71
2021/08/28 01:52:17;;;;;;;3.35;2.67;;;;;;;16.50;90.14;99946.43;2897602;81;21064;-71
2021/08/28 01:56:20;;;;;;;7.12;3.35;;;;;;;16.52;90.03;99936.38;2897909;81;21074;-71
2021/08/28 02:00:22;;;;;;;7.55;3.65;;;;;;;16.53;89.27;99939.40;2898090;81;21014;-72
2021/08/28 02:04:23;;;;;;;4.10;3.30;;;;;;;16.44;89.61;99937.24;2897927;82;20952;-71
2021/08/28 02:08:30;;;;;;;3.50;2.77;;;;;;;16.49;90.10;99942.07;2897793;82;21010;-71
2021/08/28 02:12:45;;;;;;;2.75;2.37;;;;;;;16.47;89.88;99942.75;2896342;82;21106;-71
2021/08/28 02:16:47;;;;;;;7.75;3.87;;;;;;;16.46;90.22;99939.73;2898294;81;21031;-71
2021/08/28 02:20:56;;;;;;;4.75;2.95;;;;;;;16.48;89.86;99947.11;2898488;82;20940;-71
2021/08/28 02:25:06;;;;;;;5.42;3.62;;;;;;;16.41;89.67;99946.47;2898313;81;21038;-71
2021/08/28 02:29:25;;;;;;;4.70;3.08;;;;;;;16.42;90.08;99947.32;2897730;82;21023;-71
2021/08/28 02:33:27;;;;;;;7.12;3.33;;;;;;;16.41;89.96;99946.47;2897351;81;21408;-72
2021/08/28 02:37:33;;;;;;;4.17;2.65;;;;;;;16.46;90.35;99942.42;2897827;81;21058;-72
2021/08/28 02:41:37;;;;;;;3.10;2.80;;;;;;;16.45;89.58;99938.06;2898325;82;21023;-71
2021/08/28 02:45:39;;;;;;;4.92;3.17;;;;;;;16.46;89.61;99945.11;2898244;81;21010;-72
2021/08/28 02:49:43;;;;;;;3.58;2.40;;;;;;;16.49;89.40;99942.07;2898112;80;21003;-71
2021/08/28 02:53:47;;;;;;;4.47;2.90;;;;;;;16.49;89.01;99941.58;2898515;81;20991;-71
2021/08/28 02:57:52;;;;;;;6.67;2.27;;;;;;;16.48;88.70;99953.81;2898089;82;21449;-71
2021/08/28 03:01:54;;;;;;;5.55;3.25;;;;;;;16.44;88.75;99955.18;2898435;82;21067;-71
2021/08/28 03:05:56;;;;;;;3.70;3.37;;;;;;;16.40;88.82;99952.84;2898280;81;21026;-72
2021/08/28 03:09:58;;;;;;;3.58;2.85;;;;;;;16.46;89.23;99947.79;2898136;82;21058;-71
2021/08/28 03:14:00;;;;;;;4.60;3.62;;;;;;;16.50;88.94;99951.80;2898081;82;21010;-71
2021/08/28 03:18:02;;;;;;;5.17;3.85;;;;;;;16.51;88.47;99956.19;2897937;81;20984;-72
2021/08/28 03:22:04;;;;;;;5.47;2.47;;;;;;;16.45;88.20;99963.56;2898251;82;21022;-71
2021/08/28 03:26:09;;;;;;;5.78;3.42;;;;;;;16.38;88.60;99971.47;2898416;82;21007;-71
2021/08/28 03:30:13;;;;;;;3.15;2.75;;;;;;;16.35;89.13;99974.50;2898461;80;21185;-71
2021/08/28 03:34:16;;;;;;;5.12;3.47;;;;;;;16.39;89.69;99982.05;2898499;81;21011;-71
2021/08/28 03:38:18;;;;;;;3.25;2.90;;;;;;;16.43;89.37;99985.23;2897807;81;21035;-72
2021/08/28 03:42:20;;;;;;;7.12;3.67;;;;;;;16.39;89.45;99983.38;2906248;81;21047;-72
2021/08/28 03:46:22;;;;;;;8.58;3.35;;;;;;;16.32;89.63;99981.55;2845073;83;21013;-72
2021/08/28 03:50:24;;;;;;;5.37;3.65;;;;;;;16.30;90.04;99979.55;2906225;82;21067;-71
2021/08/28 03:54:26;;;;;;;6.17;3.77;;;;;;;16.24;90.43;99973.01;2845421;83;20935;-72
2021/08/28 03:58:28;;;;;;;7.83;2.92;;;;;;;16.26;90.47;99970.98;2897200;82;21019;-72
2021/08/28 04:02:30;;;;;;;4.53;2.55;;;;;;;16.24;90.89;99970.33;2898302;82;21652;-72
2021/08/28 04:06:31;;;;;;;4.15;2.90;;;;;;;16.32;91.07;99966.80;2897852;81;21473;-71
2021/08/28 04:10:33;;;;;;;3.22;2.92;;;;;;;16.25;90.40;99972.00;2897569;80;21014;-70
2021/08/28 04:14:35;;;;;;;5.67;2.55;;;;;;;16.21;90.68;99978.72;2897860;82;20979;-72
2021/08/28 04:18:36;;;;;;;3.42;2.90;;;;;;;16.12;91.18;99977.41;2897526;82;21003;-71
2021/08/28 04:22:38;;;;;;;5.37;2.80;;;;;;;16.24;92.05;99985.09;2895071;82;21019;-70
2021/08/28 04:35:19;;;;;;;9.15;5.42;;;;;;;16.25;90.24;99988.10;2815766;84;21123;-64
2021/08/28 04:39:21;;;;;;;6.95;5.20;;;;;;;16.17;90.51;99990.29;2804792;85;20997;-64
2021/08/28 04:43:23;;;;;;;4.60;4.12;;;;;;;16.11;91.34;99984.27;2805060;84;21008;-65
2021/08/28 04:47:43;;;;;;;5.87;4.70;;;;;;;16.11;91.44;99991.83;2804362;82;21004;-64
2021/08/28 04:51:45;;;;;;;6.47;4.70;;;;;;;16.08;91.40;99989.46;2804703;84;21000;-65
2021/08/28 04:55:58;;;;;;;6.97;5.62;;;;;;;16.04;92.03;99996.17;2804855;85;21027;-64
2021/08/28 05:00:00;;;;;;;10.08;5.12;;;;;;;16.09;92.29;99999.18;2804827;85;20997;-64
2021/08/28 05:04:23;;;;;;;7.03;4.80;;;;;;;16.14;92.62;99996.00;2804520;84;21009;-65
2021/08/28 05:08:25;;;;;;;7.37;5.10;;;;;;;16.20;92.30;100002.54;2804895;85;20985;-66
2021/08/28 05:12:27;;;;;;;7.80;6.70;;;;;;;16.19;92.03;100002.20;2804821;85;20946;-64
2021/08/28 05:16:34;;;;;;;11.18;5.60;;;;;;;16.10;91.85;100010.77;2804628;85;21005;-65
2021/08/28 05:20:35;;;;;;;7.72;6.95;;;;;;;16.07;92.28;100013.80;2804480;84;21020;-64
2021/08/28 05:24:52;;;;;;;7.85;6.87;;;;;;;16.05;92.52;100019.31;2805088;84;21044;-64
2021/08/28 05:28:54;;;;;;;8.13;5.87;;;;;;;16.10;93.01;100025.00;2803348;84;21080;-64
2021/08/28 05:33:03;;;;;;;9.75;7.85;;;;;;;16.16;92.60;100024.02;2804748;84;21044;-65
2021/08/28 05:37:04;;;;;;;9.93;7.90;;;;;;;16.31;93.32;100027.70;2806925;84;21218;-64
2021/08/28 05:41:06;;;;;;;11.48;8.53;;;;;;;16.24;91.66;100014.11;2807853;85;21005;-64
2021/08/28 05:50:26;;;;;;;;;;;;;;;16.20;93.67;100010.59;2810571;85;21015;-64
2021/08/28 05:54:28;;;;;;;12.13;9.03;;;;;;;16.36;93.39;100013.25;2807525;85;20071;-64
2021/08/28 05:58:36;;;;;;;14.95;9.93;;;;;;;16.40;93.03;100006.53;2808196;85;21012;-64
2021/08/28 06:02:39;;;;;;;12.85;10.50;;;;;;;16.47;92.58;100012.55;2807857;85;21060;-66
2021/08/28 06:06:48;;;;;;;12.23;9.43;;;;;;;16.55;92.74;100012.55;2808256;84;20969;-64
2021/08/28 06:10:50;;;;;;;11.15;9.05;;;;;;;16.65;92.13;100011.01;2808526;83;20980;-64
2021/08/28 06:14:52;;;;;;;9.63;8.20;;;;;;;16.68;91.37;100019.53;2806972;84;20977;-64
2021/08/28 06:18:54;;;;;;;16.85;10.30;;;;;;;16.73;91.75;100013.66;2808538;84;21052;-64
2021/08/28 06:22:56;;;;;;;13.28;8.50;;;;;;;16.81;91.56;100015.48;2808252;85;21024;-64
2021/08/28 06:27:23;;;;;;;9.18;7.55;;;;;;;16.88;91.00;100011.08;2808666;84;20989;-65
2021/08/28 06:31:24;;;;;;;13.40;7.83;;;;;;;16.91;90.03;100011.25;2742996;87;21003;-64
2021/08/28 06:35:32;;;;;;;9.65;8.63;;;;;;;16.75;88.53;100015.66;2807217;83;21220;-63
2021/08/28 06:39:36;;;;;;;7.40;6.53;;;;;;;16.66;90.80;100018.88;2804802;85;21107;-63
2021/08/28 06:43:40;;;;;;;7.22;6.20;;;;;;;16.81;90.56;100015.48;2805018;85;21008;-65
2021/08/28 06:47:42;;;;;;;8.70;7.00;;;;;;;17.01;90.26;100006.55;2805190;82;21033;-65
2021/08/28 06:51:57;;;;;;;6.10;5.50;;;;;;;17.17;89.35;100008.80;2805055;85;21048;-64
2021/08/28 06:55:59;;;;;;;6.40;5.67;;;;;;;17.20;88.91;100006.61;2805415;85;20969;-65
2021/08/28 07:00:02;;;;;;;8.53;6.67;;;;;;;17.36;88.84;100011.05;2805042;84;21071;-64
2021/08/28 07:04:05;;;;;;;6.62;5.33;;;;;;;17.52;87.98;100016.84;2804983;84;21048;-64
2021/08/28 07:08:16;;;;;;;9.65;6.42;;;;;;;17.51;87.48;100021.90;2805121;85;20946;-64
2021/08/28 07:12:18;;;;;;;6.20;5.08;;;;;;;17.54;86.31;100028.26;2804748;84;21057;-64
2021/08/28 07:16:21;;;;;;;7.35;5.90;;;;;;;17.51;86.00;100029.97;2804653;85;20977;-64
2021/08/28 07:20:24;;;;;;;11.00;8.38;;;;;;;17.67;85.98;100031.70;2805102;84;21016;-63
2021/08/28 07:24:32;;;;;;;6.90;5.90;;;;;;;17.81;85.59;100030.60;2804814;85;20997;-64
2021/08/28 07:28:33;;;;;;;8.10;6.75;;;;;;;17.82;85.33;100036.31;2826027;83;20997;-65
2021/08/28 07:32:36;;;;;;;8.85;8.00;;;;;;;17.91;84.89;100050.54;2845230;83;20976;-65
2021/08/28 07:36:38;;;;;;;7.40;6.75;;;;;;;17.90;84.10;100042.97;2838098;83;21015;-65
2021/08/28 07:40:40;;;;;;;8.18;7.37;;;;;;;17.99;84.85;100041.05;2862783;83;21495;-65
2021/08/28 07:44:57;;;;;;;13.08;8.20;;;;;;;18.16;82.99;100039.08;2837726;83;21023;-65
2021/08/28 07:48:59;;;;;;;10.90;7.95;;;;;;;18.31;82.42;100040.97;2819087;82;20972;-65
2021/08/28 07:53:01;;;;;;;10.88;7.30;;;;;;;18.48;82.76;100036.28;2846456;80;20992;-65
2021/08/28 07:57:11;;;;;;;8.50;7.55;;;;;;;18.79;81.22;100034.76;2846110;80;21056;-64
2021/08/28 08:01:13;;;;;;;11.80;9.85;;;;;;;18.91;80.56;100033.78;2846767;83;20999;-59
2021/08/28 08:05:15;;;;;;;11.93;8.33;;;;;;;19.03;79.44;100037.36;2846427;83;20968;-60
2021/08/28 08:09:17;;;;;;;6.75;5.87;;;;;;;19.17;79.10;100042.43;2846611;83;21095;-60
2021/08/28 08:13:20;;;;;;;7.80;6.90;;;;;;;19.35;77.81;100035.27;2846005;83;20988;-61
2021/08/28 08:17:22;;;;;;;7.87;7.12;;;;;;;19.60;78.04;100043.00;2846103;83;20996;-61
2021/08/28 08:21:37;;;;;;;7.45;6.33;;;;;;;19.75;76.25;100042.44;2846491;83;21184;-61
2021/08/28 08:25:40;;;;;;;11.50;5.85;;;;;;;19.67;75.63;100043.39;2845719;83;21020;-62
2021/08/28 08:29:42;;;;;;;7.47;6.03;;;;;;;19.57;75.57;100044.73;2843024;83;21031;-61
2021/08/28 08:33:44;;;;;;;6.83;5.80;;;;;;;19.50;75.94;100044.16;2802430;83;21031;-61
2021/08/28 08:37:57;;;;;;;6.80;5.50;;;;;;;19.50;75.35;100042.81;2776785;84;21071;-62
2021/08/28 08:41:58;;;;;;;8.55;6.40;;;;;;;19.51;77.00;100044.48;2764756;86;20988;-59
2021/08/28 08:46:00;;;;;;;7.75;5.00;;;;;;;19.66;76.85;100037.68;2764891;86;20977;-60
2021/08/28 08:50:04;;;;;;;7.37;5.78;;;;;;;19.80;75.97;100041.34;2765149;85;20981;-60
2021/08/28 08:54:06;;;;;;;4.62;4.20;;;;;;;19.75;75.76;100033.49;2764987;86;21064;-62
2021/08/28 08:59:01;;;;;;;6.10;5.50;;;;;;;19.74;75.59;100029.98;2745654;86;20945;-60
2021/08/28 09:03:06;;;;;;;5.03;4.25;;;;;;;19.73;75.60;100030.16;2765096;86;21063;-59
2021/08/28 09:07:14;;;;;;;8.33;7.45;;;;;;;19.78;75.27;100035.84;2764829;85;20985;-61
2021/08/28 09:11:34;;;;;;;6.47;5.47;;;;;;;19.88;74.95;100032.28;2765201;86;21048;-60
2021/08/28 09:15:45;;;;;;;8.33;5.85;;;;;;;19.87;73.84;100036.01;2764045;86;21032;-60
2021/08/28 09:19:49;;;;;;;5.03;4.53;;;;;;;19.74;74.65;100037.22;2764369;86;20988;-59
2021/08/28 09:24:21;;;;;;;7.78;7.03;;;;;;;19.81;73.46;100041.66;2764656;86;20977;-60
2021/08/28 09:28:35;;;;;;;5.55;5.05;;;;;;;19.88;73.20;100039.56;2764998;85;21146;-59
2021/08/28 09:32:37;;;;;;;6.83;5.35;;;;;;;20.04;74.65;100037.95;2764498;86;21036;-59
2021/08/28 09:36:56;;;;;;;4.87;4.40;;;;;;;20.19;73.53;100041.09;2774644;85;21019;-62
2021/08/28 09:41:00;;;;;;;4.08;3.65;;;;;;;20.23;72.44;100041.02;2796510;85;21038;-60
2021/08/28 09:45:11;;;;;;;5.20;3.47;;;;;;;20.49;74.00;100044.43;2768361;86;21084;-61
2021/08/28 09:49:13;;;;;;;3.85;3.50;;;;;;;20.71;72.92;100036.25;2768662;86;21024;-60
2021/08/28 09:53:21;;;;;;;4.85;4.03;;;;;;;20.95;73.70;100042.26;2798049;85;21023;-59
2021/08/28 09:57:29;;;;;;;3.05;2.75;;;;;;;21.08;71.93;100033.37;2797877;85;21057;-59
2021/08/28 10:01:31;;;;;;;2.98;2.75;;;;;;;21.20;71.89;100041.20;2797329;85;21023;-59
2021/08/28 10:05:36;;;;;;;2.87;2.27;;;;;;;21.18;69.40;100036.52;2798163;85;21024;-58
2021/08/28 10:09:58;;;;;;;4.28;2.67;;;;;;;21.36;69.52;100029.20;2798475;85;21043;-64
2021/08/28 10:14:00;;;;;;;2.62;2.42;;;;;;;21.41;68.66;100029.93;2797296;85;21047;-59
2021/08/28 10:18:07;;;;;;;2.77;2.17;;;;;;;21.39;66.95;100027.95;2768787;86;20973;-60
2021/08/28 10:22:12;;;;;;;2.55;1.90;;;;;;;21.50;66.61;100033.28;2768570;86;21060;-59
2021/08/28 10:26:25;;;;;;;2.12;1.55;;;;;;;21.60;66.36;100038.30;2798287;83;21137;-60
2021/08/28 10:30:28;;;;;;;1.60;1.42;;;;;;;21.61;65.73;100044.03;2797996;85;21101;-59
2021/08/28 10:34:32;;;;;;;1.52;1.35;;;;;;;21.76;65.89;100043.37;2797339;85;20987;-61
2021/08/28 10:38:37;;;;;;;1.72;1.62;;;;;;;22.09;65.08;100037.16;2773677;85;21028;-61
2021/08/28 10:42:42;;;;;;;2.45;1.80;;;;;;;22.11;63.27;100036.97;2764354;86;21076;-60
2021/08/28 10:46:44;;;;;;;3.92;1.90;;;;;;;22.30;64.28;100035.27;2764941;86;21051;-59
2021/08/28 10:50:55;;;;;;;3.17;1.82;;;;;;;22.36;62.39;100039.03;2764733;86;21106;-60
2021/08/28 10:55:14;;;;;;;1.85;1.60;;;;;;;22.46;64.40;100035.35;2763321;86;21028;-60
2021/08/28 10:59:45;;;;;;;3.05;2.00;;;;;;;22.47;63.62;100033.52;2765333;86;21024;-59
2021/08/28 11:03:46;;;;;;;2.10;1.87;;;;;;;22.60;61.88;100034.02;2764926;86;21005;-60
2021/08/28 11:07:49;;;;;;;5.62;2.42;;;;;;;22.82;61.43;100033.24;2765013;86;21039;-59
2021/08/28 11:11:55;;;;;;;3.37;2.52;;;;;;;22.62;61.77;100032.77;2765193;86;21040;-59
2021/08/28 11:15:54;;;;;;;2.90;2.70;;;;;;;22.61;64.15;100032.46;2765033;86;21040;-61
2021/08/28 11:20:01;;;;;;;2.67;2.45;;;;;;;22.58;63.64;100031.50;2765331;86;21016;-59
2021/08/28 11:28:50;;;;;;;2.62;2.42;;;;;;;22.65;64.84;100035.05;2765006;86;21057;-59
2021/08/28 11:33:07;;;;;;;2.20;2.00;;;;;;;22.95;63.45;100025.58;2764696;86;21024;-59
2021/08/28 11:37:41;;;;;;;2.45;2.25;;;;;;;23.07;62.92;100029.27;2775329;85;21023;-59
2021/08/28 11:41:43;;;;;;;2.60;2.22;;;;;;;23.09;64.19;100029.06;2797524;85;21012;-60
2021/08/28 11:45:46;;;;;;;2.08;1.85;;;;;;;23.05;62.52;100030.55;2797398;85;21592;-59
2021/08/28 11:49:57;;;;;;;2.37;2.17;;;;;;;22.91;62.29;100031.95;2797532;85;21054;-60
2021/08/28 11:54:02;;;;;;;3.08;2.25;;;;;;;22.76;63.35;100034.08;2796938;85;21051;-59
2021/08/28 11:58:08;;;;;;;1.60;1.50;;;;;;;22.76;62.97;100027.30;2797269;85;20944;-59
2021/08/28 12:02:11;;;;;;;1.52;1.37;;;;;;;22.93;62.76;100023.07;2797432;85;21019;-60
2021/08/28 12:06:34;;;;;;;3.35;1.95;;;;;;;23.19;61.43;100029.45;2797385;85;21047;-59
2021/08/28 12:10:45;;;;;;;4.70;3.02;;;;;;;23.31;60.53;100036.42;2797563;85;21070;-59
2021/08/28 12:15:07;;;;;;;1.77;1.65;;;;;;;22.88;61.71;100048.65;2783960;85;21046;-59
2021/08/28 12:19:25;;;;;;;1.65;1.55;;;;;;;22.31;62.19;100037.48;2796799;85;21047;-60
2021/08/28 12:23:28;;;;;;;2.83;1.75;;;;;;;21.79;63.14;100044.84;2797069;85;21087;-62
2021/08/28 12:27:30;;;;;;;1.62;1.52;;;;;;;21.38;64.59;100043.87;2796860;85;20988;-60
2021/08/28 12:31:32;;;;;;;3.40;1.77;;;;;;;21.09;66.11;100052.08;2797150;85;20999;-59
2021/08/28 12:35:36;;;;;;;3.83;2.85;;;;;;;20.85;67.31;100052.08;2797368;85;21003;-62
2021/08/28 12:40:15;;;;;;;2.20;2.00;;;;;;;20.65;68.78;100054.12;2768989;85;20981;-62
2021/08/28 12:44:18;;;;;;;2.90;2.52;;;;;;;20.47;69.44;100052.44;2765097;86;21083;-61
2021/08/28 12:48:20;;;;;;;2.27;2.05;;;;;;;20.35;69.99;100050.80;2764998;86;21044;-60
2021/08/28 12:52:43;;;;;;;3.55;2.60;;;;;;;20.25;70.18;100049.78;2764903;86;20977;-60
2021/08/28 12:56:53;;;;;;;2.37;2.17;;;;;;;20.17;69.88;100053.95;2764743;86;21079;-59
2021/08/28 13:01:00;;;;;;;2.80;2.60;;;;;;;20.07;69.44;100053.78;2764958;85;21028;-60
2021/08/28 13:05:05;;;;;;;3.72;3.10;;;;;;;20.02;71.48;100045.41;2764834;86;20997;-60
2021/08/28 13:09:17;;;;;;;6.92;1.98;;;;;;;19.98;70.90;100048.19;2764968;86;21030;-61
2021/08/28 13:13:19;;;;;;;1.57;1.47;;;;;;;19.98;72.00;100050.88;2764702;86;21024;-62
2021/08/28 13:17:27;;;;;;;2.75;2.12;;;;;;;19.94;71.41;100050.95;2764940;86;21147;-60
2021/08/28 13:21:37;;;;;;;3.02;2.77;;;;;;;19.91;71.70;100050.81;2764957;86;21056;-61
2021/08/28 13:25:46;;;;;;;2.65;2.15;;;;;;;19.90;72.09;100044.25;2764984;86;21507;-64
2021/08/28 13:29:48;;;;;;;3.45;2.50;;;;;;;19.91;72.58;100040.52;2764141;86;20985;-60
2021/08/28 13:34:00;;;;;;;3.87;2.70;;;;;;;19.92;73.32;100046.27;2764780;85;21004;-61
2021/08/28 13:38:06;;;;;;;4.15;2.47;;;;;;;19.91;72.62;100049.97;2778283;85;21000;-60
2021/08/28 13:42:24;;;;;;;3.30;2.40;;;;;;;19.89;73.02;100046.63;2797466;85;20996;-61
2021/08/28 13:46:27;;;;;;;3.67;2.55;;;;;;;19.89;73.47;100042.58;2797432;85;21082;-60
2021/08/28 13:50:52;;;;;;;3.47;2.87;;;;;;;19.92;72.92;100047.62;2797161;85;21062;-59
2021/08/28 13:54:54;;;;;;;4.33;2.98;;;;;;;19.94;72.83;100048.26;2797549;85;21032;-59
2021/08/28 13:59:03;;;;;;;3.52;3.22;;;;;;;19.90;72.65;100046.95;2797133;85;21075;-59
2021/08/28 14:03:07;;;;;;;2.37;2.17;;;;;;;19.84;72.54;100046.67;2797160;85;21118;-59
2021/08/28 14:07:09;;;;;;;2.47;2.27;;;;;;;19.80;72.19;100043.22;2797168;85;21007;-60
2021/08/28 14:11:35;;;;;;;2.22;1.90;;;;;;;19.76;72.68;100042.76;2797041;85;20952;-62
2021/08/28 14:15:37;;;;;;;;;;;;;;;19.79;72.63;100043.72;2799845;85;20987;-62
2021/08/28 14:23:43;;;;;;;2.58;2.33;;;;;;;19.81;72.79;100045.70;2807495;82;21016;-72
2021/08/28 14:31:55;;;;;;;2.65;1.67;;;;;;;19.79;70.85;100038.33;2857239;80;21039;-60
2021/08/28 14:36:10;;;;;;;3.02;2.70;;;;;;;19.82;71.18;100039.81;2858069;83;20995;-59
2021/08/28 14:40:13;;;;;;;2.27;2.00;;;;;;;19.89;71.85;100037.18;2857838;82;20987;-61
2021/08/28 14:44:15;;;;;;;2.70;2.42;;;;;;;19.91;71.87;100045.91;2857446;82;20948;-60
2021/08/28 14:48:17;;;;;;;2.50;2.27;;;;;;;19.92;71.48;100041.69;2857896;82;20986;-59
2021/08/28 14:52:38;;;;;;;2.22;1.75;;;;;;;19.92;70.91;100040.34;2857862;83;20991;-59
2021/08/28 14:56:41;;;;;;;3.75;2.02;;;;;;;19.97;71.33;100041.11;2857786;83;21004;-61
2021/08/28 15:00:55;;;;;;;1.47;1.35;;;;;;;20.03;71.20;100042.21;2857062;83;20987;-61
2021/08/28 15:04:58;;;;;;;1.77;1.55;;;;;;;20.09;70.62;100035.52;2857920;82;20959;-59
2021/08/28 15:09:26;;;;;;;1.70;1.60;;;;;;;20.13;70.34;100031.90;2857949;83;20994;-59
2021/08/28 15:13:30;;;;;;;3.08;2.55;;;;;;;20.20;69.96;100029.26;2857644;82;21023;-59
2021/08/28 15:17:39;;;;;;;2.20;2.00;;;;;;;20.25;70.11;100032.23;2857834;82;21038;-59
2021/08/28 15:21:41;;;;;;;2.92;2.20;;;;;;;20.27;70.26;100026.11;2857661;82;21034;-64
2021/08/28 15:25:48;;;;;;;2.90;2.30;;;;;;;20.29;70.70;100033.50;2857598;82;21054;-62
2021/08/28 15:29:52;;;;;;;2.83;2.35;;;;;;;20.34;71.82;100031.53;2857791;82;20983;-61
2021/08/28 15:33:56;;;;;;;2.90;2.45;;;;;;;20.35;71.12;100032.70;2837836;83;29760;-59
2021/08/28 15:37:58;;;;;;;2.58;1.85;;;;;;;20.34;71.11;100035.09;2873463;82;21011;-63
2021/08/28 15:42:01;;;;;;;2.20;2.00;;;;;;;20.31;70.92;100042.73;2873942;83;20979;-62
2021/08/28 15:46:14;;;;;;;1.55;1.25;;;;;;;20.23;71.19;100046.41;2873998;82;20999;-60
2021/08/28 15:50:19;;;;;;;2.92;2.45;;;;;;;20.05;71.04;100043.70;2874025;82;20999;-60
2021/08/28 15:54:21;;;;;;;2.12;1.92;;;;;;;20.01;71.84;100044.27;2873781;82;20995;-59
2021/08/28 15:58:28;;;;;;;4.83;2.33;;;;;;;20.06;71.22;100049.91;2874186;82;20990;-61
2021/08/28 16:02:30;;;;;;;2.83;2.25;;;;;;;20.08;71.61;100043.30;2873785;82;20999;-63
2021/08/28 16:06:53;;;;;;;1.92;1.70;;;;;;;20.12;72.49;100041.88;2855404;81;20955;-61
2021/08/28 16:10:55;;;;;;;7.00;2.30;;;;;;;20.22;71.83;100044.74;2862343;81;21018;-59
2021/08/28 16:14:57;;;;;;;3.42;2.62;;;;;;;20.34;70.94;100038.28;2873449;82;21077;-61
2021/08/28 16:19:24;;;;;;;4.95;4.30;;;;;;;20.44;70.63;100045.55;2870751;81;21013;-59
2021/08/28 16:23:25;;;;;;;1.90;1.75;;;;;;;20.51;70.25;100040.20;2863976;83;20958;-60
2021/08/28 16:27:47;;;;;;;1.87;1.32;;;;;;;20.58;70.80;100044.30;2863853;83;21037;-61
2021/08/28 16:31:52;;;;;;;1.80;1.32;;;;;;;20.69;69.45;100041.88;2857652;83;21019;-60
2021/08/28 16:35:56;;;;;;;1.67;1.40;;;;;;;20.80;68.65;100039.66;2854540;83;20985;-60
2021/08/28 16:39:58;;;;;;;1.40;1.27;;;;;;;20.90;68.03;100038.80;2852533;82;21050;-60
2021/08/28 16:44:02;;;;;;;2.08;1.75;;;;;;;20.94;68.31;100040.05;2851488;82;21030;-60
2021/08/28 16:48:04;;;;;;;2.42;1.77;;;;;;;20.84;67.67;100042.30;2851889;83;21038;-60
2021/08/28 16:52:17;;;;;;;3.27;1.57;;;;;;;20.76;67.76;100037.02;2851964;83;20999;-60
2021/08/28 16:56:19;;;;;;;2.10;1.57;;;;;;;20.53;67.70;100042.17;2851473;83;20960;-60
2021/08/28 17:00:21;;;;;;;1.60;1.40;;;;;;;20.27;67.89;100043.66;2851401;83;21031;-61
2021/08/28 17:04:26;;;;;;;4.08;2.52;;;;;;;20.07;68.78;100042.14;2852173;82;20979;-60
2021/08/28 17:08:28;;;;;;;2.77;1.40;;;;;;;19.97;69.54;100050.56;2851927;82;21853;-60
2021/08/28 17:12:30;;;;;;;3.05;2.62;;;;;;;19.91;70.37;100051.31;2851798;82;21023;-61
2021/08/28 17:17:09;;;;;;;3.62;2.45;;;;;;;19.87;72.31;100052.73;2852064;82;21003;-61
2021/08/28 17:21:12;;;;;;;2.90;2.35;;;;;;;19.88;72.72;100058.45;2851595;83;21007;-61
2021/08/28 17:25:48;;;;;;;2.27;2.08;;;;;;;19.87;73.03;100050.03;2851800;82;21039;-62
2021/08/28 17:29:49;;;;;;;2.12;1.75;;;;;;;19.72;72.68;100048.72;2851967;82;21011;-61
2021/08/28 17:33:51;;;;;;;1.70;1.60;;;;;;;19.49;72.79;100045.19;2854253;83;20980;-61
2021/08/28 17:37:55;;;;;;;4.15;1.20;;;;;;;19.26;73.56;100050.72;2855125;82;21012;-62
2021/08/28 17:41:57;;;;;;;2.75;2.37;;;;;;;19.16;76.04;100057.75;2854941;82;20944;-61
2021/08/28 17:45:59;;;;;;;2.15;1.90;;;;;;;19.01;77.51;100060.47;2856824;82;21027;-61
2021/08/28 17:50:01;;;;;;;2.05;1.85;;;;;;;18.95;78.17;100060.67;2856922;83;20951;-61
2021/08/28 17:54:02;;;;;;;2.40;1.90;;;;;;;18.85;78.28;100060.10;2857124;82;20951;-61
2021/08/28 17:58:45;;;;;;;4.40;2.00;;;;;;;18.72;79.06;100058.06;2857113;83;20976;-61
2021/08/28 18:02:47;;;;;;;2.92;2.47;;;;;;;18.66;80.63;100054.23;2857607;83;20928;-63
2021/08/28 18:06:51;;;;;;;4.67;2.12;;;;;;;18.55;81.14;100062.27;2857609;83;20979;-61
2021/08/28 18:10:53;;;;;;;4.37;3.27;;;;;;;18.50;81.68;100062.52;2857597;82;20999;-61
2021/08/28 18:15:15;;;;;;;3.62;2.98;;;;;;;18.46;81.64;100063.87;2882012;82;21051;-60
2021/08/28 18:19:17;;;;;;;3.67;2.95;;;;;;;18.48;81.34;100065.91;2886218;82;20975;-64
2021/08/28 18:23:32;;;;;;;5.97;3.92;;;;;;;18.58;81.23;100065.11;2857770;82;21382;-61
2021/08/28 18:27:34;;;;;;;7.72;3.47;;;;;;;18.66;81.29;100070.41;2857714;83;21384;-61
2021/08/28 18:31:49;;;;;;;5.00;3.90;;;;;;;18.68;81.47;100079.66;2857988;83;20998;-61
2021/08/28 18:35:51;;;;;;;5.55;3.60;;;;;;;18.63;81.49;100088.81;2844754;81;21047;-61
2021/08/28 18:40:13;;;;;;;7.42;3.75;;;;;;;18.56;81.54;100097.60;2844345;84;21003;-60
2021/08/28 18:44:15;;;;;;;6.75;3.83;;;;;;;18.62;81.54;100097.39;2844621;84;21018;-61
2021/08/28 18:48:23;;;;;;;7.80;4.28;;;;;;;18.72;81.29;100094.95;2843921;83;21074;-61
2021/08/28 18:52:25;;;;;;;5.92;4.03;;;;;;;18.77;81.11;100092.04;2844341;84;21031;-61
2021/08/28 18:57:11;;;;;;;4.75;3.60;;;;;;;18.78;81.04;100097.75;2844340;84;21061;-60
2021/08/28 19:01:13;;;;;;;4.07;3.37;;;;;;;18.79;80.91;100095.88;2865814;82;20964;-61
2021/08/28 19:05:15;;;;;;;5.55;3.05;;;;;;;18.72;81.19;100097.13;2841604;83;21047;-61
2021/08/28 19:09:17;;;;;;;4.37;3.45;;;;;;;18.76;81.05;100104.34;2841501;83;20944;-60
2021/08/28 19:13:24;;;;;;;3.80;3.50;;;;;;;18.78;80.70;100106.33;2844064;84;20951;-61
2021/08/28 19:17:26;;;;;;;4.65;4.20;;;;;;;18.80;80.85;100108.33;2844160;83;21219;-61
2021/08/28 19:21:28;;;;;;;3.58;3.27;;;;;;;18.82;80.58;100114.37;2844026;83;21003;-60
2021/08/28 19:25:30;;;;;;;5.15;3.92;;;;;;;18.79;80.40;100111.55;2844009;84;20991;-61
2021/08/28 19:29:32;;;;;;;6.20;4.95;;;;;;;18.75;80.81;100110.22;2844223;84;21015;-60
2021/08/28 19:33:34;;;;;;;6.25;4.75;;;;;;;18.76;80.96;100107.85;2848642;82;21030;-61
2021/08/28 19:37:50;;;;;;;5.95;3.67;;;;;;;18.77;80.90;100106.01;2847805;82;20992;-62